Flight Track Log - Related Links

Times and Time Zones

All times are in EDT time to prevent confusion due to time zone crossing. See the AMF6907 flight status page for this flight to view local times or setup timezone preferences in your user account.

Time Position Orientation Groundspeed Altitude Reporting Facility
EDT Latitude Longitude Course Direction KTS MPH feet Rate Location/Type
Fri 11:03:23 AM 18.4333 -65.9667 62° Northeast 150 173 1,000  Level San Juan Center
Fri 11:04:23 AM 18.4500 -65.9333 62° Northeast 140 161 3,200 2,182 Climbing San Juan Center
Fri 11:05:24 AM 18.4500 -65.8833 90° East 150 173 5,400 2,083 Climbing San Juan Center
Fri 11:06:24 AM 18.4500 -65.8500 90° East 140 161 7,400 1,750 Climbing San Juan Center
Fri 11:07:24 AM 18.4500 -65.8000 90° East 150 173 8,900 1,438 Climbing San Juan Center
Fri 11:08:25 AM 18.4500 -65.7667 90° East 160 184 10,300 1,041 Climbing San Juan Center
Fri 11:09:25 AM 18.4500 -65.7167 90° East 170 196 11,000 350 Climbing San Juan Center
Fri 11:10:25 AM 18.4333 -65.6500 105° East 230 265 11,000  Level San Juan Center
Fri 11:11:26 AM 18.4500 -65.5833 75° East 240 276 11,000  Level San Juan Center
Fri 11:12:26 AM 18.4333 -65.5000 102° East 250 288 11,000  Level San Juan Center
Fri 11:13:26 AM 18.4333 -65.4333 90° East 250 288 11,000  Level San Juan Center
Fri 11:14:27 AM 18.4333 -65.3500 90° East 250 288 11,000  Level San Juan Center
Fri 11:15:27 AM 18.4333 -65.2833 90° East 250 288 11,000  Level San Juan Center
Fri 11:16:27 AM 18.4333 -65.2000 90° East 250 288 11,000  Level San Juan Center
Fri 11:17:27 AM 18.4333 -65.1333 90° East 250 288 11,000  Level San Juan Center
Fri 11:18:28 AM 18.4333 -65.0500 90° East 250 288 11,000  Level San Juan Center
Fri 11:19:28 AM 18.4333 -64.9833 90° East 260 299 11,000  Level San Juan Center
Fri 11:20:28 AM 18.4167 -64.9000 102° East 250 288 11,000  Level San Juan Center
Fri 11:21:29 AM 18.4167 -64.8333 90° East 250 288 11,000  Level San Juan Center
Fri 11:22:29 AM 18.4167 -64.7500 90° East 260 299 11,000  Level San Juan Center
Fri 11:23:29 AM 18.4167 -64.6833 90° East 260 299 11,000  Level San Juan Center
Fri 11:24:30 AM 18.4167 -64.6000 90° East 250 288 11,000  Level San Juan Center
Fri 11:25:30 AM 18.4167 -64.5333 90° East 250 288 11,000  Level San Juan Center
Fri 11:26:30 AM 18.4167 -64.4500 90° East 250 288 11,000  Level San Juan Center
Fri 11:27:30 AM 18.4000 -64.3833 105° East 250 288 11,000  Level San Juan Center
Fri 11:28:31 AM 18.4000 -64.3167 90° East 260 299 11,000  Level San Juan Center
Fri 11:29:31 AM 18.4000 -64.2333 90° East 250 288 11,000  Level San Juan Center
Fri 11:30:31 AM 18.4000 -64.1667 90° East 250 288 11,000 -248 Level San Juan Center
Fri 11:31:32 AM 18.4000 -64.0833 90° East 260 299 10,500 -496 Descending San Juan Center
Fri 11:32:32 AM 18.4000 -64.0000 90° East 260 299 10,000 -250 Descending San Juan Center
Fri 11:33:32 AM 18.3833 -63.9333 105° East 260 299 10,000  Level San Juan Center
Fri 11:34:33 AM 18.3833 -63.8667 90° East 250 288 10,000  Level San Juan Center
Fri 11:35:33 AM 18.3833 -63.7833 90° East 250 288 10,000  Level San Juan Center
Fri 11:36:33 AM 18.3833 -63.7167 90° East 250 288 10,000  Level San Juan Center
Fri 11:37:34 AM 18.3833 -63.6500 90° East 250 288 10,000  Level San Juan Center
Fri 11:39:00 AM 18.3284 -63.5744 127° Southeast  Level FlightAware Approximate
Fri 11:46:00 AM 18.0810 -63.1905 122° Southeast  Level FlightAware Approximate
Fri 11:47:00 AM 18.0519 -63.1352 136° Southeast  Level FlightAware Approximate
Fri 11:48:00 AM 18.0410 -63.1089 90° East  Level Estimated
Fri 11:49:00 AM 18.0410 -63.1089 90° East  Level Estimated
Fri 11:50:00 AM 18.0410 -63.1089 90° East  Level Estimated
Fri 11:51:00 AM 18.0410 -63.1089 90° East  Level Estimated
Fri 11:52:00 AM 18.0410 -63.1089 90° East  Level Estimated
Fri 11:53:00 AM 18.0410 -63.1089 90° East  Level Estimated
Fri 11:54:00 AM 18.0410 -63.1089 90° East  Level Estimated
Fri 11:55:00 AM 18.0410 -63.1089 90° East  Level Estimated
Fri 11:56:00 AM 18.0410 -63.1089 90° East  Level Estimated
Fri 11:57:00 AM 18.0410 -63.1089 90° East  Level Estimated
Fri 11:58:00 AM 18.0410 -63.1089 90° East  Level Estimated
Fri 11:59:00 AM 18.0410 -63.1089 90° East  Level Estimated
Fri 12:00:00 PM 18.0410 -63.1089 90° East  Level Estimated
Fri 12:01:00 PM 18.0410 -63.1089 90° East  Level Estimated
Fri 12:02:00 PM 18.0410 -63.1089 90° East  Level Estimated
Fri 12:03:00 PM 18.0410 -63.1089 90° East  Level Estimated
Fri 12:04:00 PM 18.0410 -63.1089 90° East  Level Estimated

Login

Don't have an account? Register now (free) for customized features, flight alerts, and more!